Portada
METAR-TAF:

METAR-TAF

Aeroports :

Base aèria

Khamis Mushayt, Aràbia Saudita

latitud: 18-18N, longitud: 042-48E, altitud: 2066 m

Observació

L'informe es va fer fa 28 minuts, a les 23:00 UTC
Vent 4 kt del Sud/Sud-Est
Temperatura 14°C
Humitat 26%
Pressió 1025 hPa
Visibilitat 10 km o més
sense núvols per sota de 1500 mi sense presència de cumulonimbus.

METAR: OEKM 242300Z 15004KT CAVOK 14/M05 Q1025 NOSIG

Hora: 02:28 (23:28 UTC)

Pronòstic

L'informe es va fer fa 12 hores i 28 minuts, a les 11:00 UTC
Pronòstic vàlid del 24 a les 12 UTC al 25 a les 18 UTC
Vent 11 kt del Sud-Oest
Visibilitat 10 km o més
Escasses núvols a una alçada de 2000 ft
Temporalment
l' 24 a les 12 UTC al 24 a les 18 UTC
Escasses núvols a una alçada de 2500 ft, Cumulonimbus.
Evolucionant progressivament
l' 24 a les 18 UTC al 24 a les 20 UTC
Vent 3 kt amb direcció variable

TAF: OEKM 241100Z 2412/2518 22011KT 9999 FEW020 TEMPO 2412/2418 FEW025CB BECMG 2418/2420 VRB03KT

Observacions i pronòstics meteorològics de més de 4000 aeroports (METAR i TAF).

Les estacions disponibles són els punts grocs i vermells al mapa.

Posi el ratolí al punt desitjat per veure el nom de l'estació.

Feu clic per veure les observacions i els pronòstics meteorològics.

Per canviar el mapa: feu clic els botons verds amb una creu de color negre per apropar; al botó verd amb un guió per allunyar la imatge; o en les fletxes verdes per a mapes adjacents.


METAR-TAF: